createdAt,value
2018-04-08T00:01:11.257Z,18.40
2018-04-08T00:03:38.587Z,18.30
2018-04-08T00:06:06.739Z,18.30
2018-04-08T00:11:02.424Z,18.20
2018-04-08T00:15:58.804Z,18.20
2018-04-08T00:18:26.240Z,18.20
2018-04-08T00:23:21.864Z,18.30
2018-04-08T00:25:49.224Z,18.30
2018-04-08T00:28:17.320Z,18.30
2018-04-08T00:30:44.820Z,18.30
2018-04-08T00:33:13.027Z,18.20
2018-04-08T00:35:40.517Z,18.30
2018-04-08T00:38:07.868Z,18.30
2018-04-08T00:52:56.791Z,18.20
2018-04-08T00:55:24.292Z,18.20
2018-04-08T00:57:51.492Z,18.00
2018-04-08T01:00:18.852Z,17.90
2018-04-08T01:02:46.799Z,17.90
2018-04-08T01:07:42.147Z,17.90
2018-04-08T01:10:10.099Z,17.80
2018-04-08T01:12:37.512Z,17.80
2018-04-08T01:15:04.795Z,17.70
2018-04-08T01:17:32.719Z,17.70
2018-04-08T01:20:01.160Z,17.60
2018-04-08T01:22:28.500Z,17.60
2018-04-08T01:24:56.635Z,17.50
2018-04-08T01:27:24.036Z,17.60
2018-04-08T01:32:19.696Z,17.60
2018-04-08T01:37:15.414Z,17.50
2018-04-08T01:39:43.456Z,17.40
2018-04-08T01:42:10.791Z,17.40
2018-04-08T01:44:38.110Z,17.30
2018-04-08T01:49:34.460Z,17.20
2018-04-08T01:52:01.882Z,17.20
2018-04-08T01:54:29.247Z,17.20
2018-04-08T01:56:56.877Z,17.30
2018-04-08T01:59:24.217Z,17.30
2018-04-08T02:01:51.584Z,17.20
2018-04-08T02:04:19.214Z,17.10
2018-04-08T02:06:47.336Z,17.00
2018-04-08T02:09:14.745Z,17.00
2018-04-08T02:11:42.112Z,17.00
2018-04-08T02:14:09.453Z,17.00
2018-04-08T02:16:37.038Z,16.90
2018-04-08T02:19:04.399Z,16.90
2018-04-08T02:21:31.728Z,16.90
2018-04-08T02:23:59.395Z,16.90
2018-04-08T02:26:26.762Z,16.80
2018-04-08T02:28:54.060Z,16.90
2018-04-08T02:31:21.392Z,16.80
2018-04-08T02:33:48.827Z,16.70
2018-04-08T02:36:16.917Z,16.70
2018-04-08T02:38:44.250Z,16.70
2018-04-08T02:41:11.608Z,16.80
2018-04-08T02:43:39.020Z,16.80
2018-04-08T02:46:07.161Z,16.80
2018-04-08T02:53:31.112Z,16.70
2018-04-08T02:55:58.426Z,16.70
2018-04-08T03:00:54.017Z,16.50
2018-04-08T03:03:22.108Z,16.40
2018-04-08T03:05:49.667Z,16.50
2018-04-08T03:08:16.981Z,16.40
2018-04-08T03:10:45.163Z,16.30
2018-04-08T03:13:13.396Z,16.30
2018-04-08T03:20:37.987Z,16.50
2018-04-08T03:23:05.398Z,16.50
2018-04-08T03:25:33.488Z,16.50
2018-04-08T03:30:29.869Z,16.50
2018-04-08T03:32:57.472Z,16.50
2018-04-08T03:37:53.027Z,16.30
2018-04-08T03:40:21.195Z,16.30
2018-04-08T03:45:16.796Z,16.30
2018-04-08T03:50:13.176Z,16.30
2018-04-08T03:52:41.288Z,16.30
2018-04-08T03:55:08.632Z,16.30
2018-04-08T03:57:36.121Z,16.30
2018-04-08T04:02:32.116Z,16.30
2018-04-08T04:04:59.500Z,16.30
2018-04-08T04:07:26.864Z,16.30
2018-04-08T04:12:22.519Z,16.40
2018-04-08T04:17:18.976Z,16.20
2018-04-08T04:22:34.081Z,16.10
2018-04-08T04:25:18.532Z,16.10
2018-04-08T04:27:45.792Z,16.10
2018-04-08T04:30:13.302Z,16.10
2018-04-08T04:32:41.799Z,16.00
2018-04-08T04:35:09.143Z,16.00
2018-04-08T04:37:37.229Z,16.00
2018-04-08T04:45:01.886Z,15.90
2018-04-08T04:47:29.219Z,15.90
2018-04-08T04:49:58.124Z,15.90
2018-04-08T04:57:22.139Z,15.80
2018-04-08T05:02:17.799Z,15.80
2018-04-08T05:07:13.440Z,15.80
2018-04-08T05:09:41.259Z,15.80
2018-04-08T05:12:08.544Z,15.80
2018-04-08T05:17:04.227Z,15.80
2018-04-08T05:19:31.571Z,15.80
2018-04-08T05:21:59.661Z,15.80
2018-04-08T05:24:27.767Z,15.80
2018-04-08T05:29:24.152Z,15.60
2018-04-08T05:31:51.607Z,15.70
2018-04-08T05:39:16.228Z,16.00
2018-04-08T05:41:44.292Z,16.10
2018-04-08T05:46:39.992Z,16.40
2018-04-08T05:49:07.389Z,16.50
2018-04-08T05:51:35.527Z,16.50
2018-04-08T05:56:31.170Z,16.80
2018-04-08T06:01:27.569Z,16.90
2018-04-08T06:03:55.687Z,17.00
2018-04-08T06:08:51.376Z,17.30
2018-04-08T06:13:46.963Z,17.50
2018-04-08T06:16:15.116Z,17.60
2018-04-08T06:18:42.479Z,17.70
2018-04-08T06:21:10.610Z,17.70
2018-04-08T06:23:37.907Z,17.80
2018-04-08T06:26:06.032Z,18.00
2018-04-08T06:28:33.468Z,18.10
2018-04-08T06:31:01.605Z,18.20
2018-04-08T06:35:57.971Z,18.50
2018-04-08T06:38:25.404Z,18.70
2018-04-08T06:40:52.966Z,18.90
2018-04-08T06:43:21.040Z,19.10
2018-04-08T06:48:17.460Z,19.40
2018-04-08T06:50:44.860Z,19.50
2018-04-08T06:55:41.252Z,19.70
2018-04-08T07:00:36.900Z,19.50
2018-04-08T07:05:33.301Z,19.80
2018-04-08T07:08:01.531Z,19.90
2018-04-08T07:10:28.846Z,20.10
2018-04-08T07:12:56.448Z,20.40
2018-04-08T07:15:23.783Z,20.70
2018-04-08T07:17:51.879Z,20.40
2018-04-08T07:22:47.523Z,20.80
2018-04-08T07:25:15.610Z,21.00
2018-04-08T07:27:43.103Z,21.30
2018-04-08T07:30:10.575Z,21.50
2018-04-08T07:32:37.952Z,21.70
2018-04-08T07:35:05.360Z,21.90
2018-04-08T07:37:32.663Z,22.10
2018-04-08T07:42:29.084Z,22.70
2018-04-08T07:44:56.487Z,23.00
2018-04-08T07:47:24.574Z,23.20
2018-04-08T07:52:20.239Z,23.50
2018-04-08T07:57:15.847Z,23.70
2018-04-08T08:02:12.799Z,24.10
2018-04-08T08:04:40.102Z,24.30
2018-04-08T08:07:08.708Z,24.50
2018-04-08T08:09:36.820Z,24.60
2018-04-08T08:12:04.183Z,24.70
2018-04-08T08:14:32.327Z,24.90
2018-04-08T08:19:27.968Z,25.40
2018-04-08T08:24:24.317Z,25.70
2018-04-08T08:26:52.440Z,25.90
2018-04-08T08:29:19.820Z,26.10
2018-04-08T08:31:47.892Z,26.30
2018-04-08T08:36:43.924Z,26.80
2018-04-08T08:39:11.267Z,27.00
2018-04-08T08:41:38.703Z,27.10
2018-04-08T08:44:06.776Z,27.10
2018-04-08T08:49:03.720Z,27.50
2018-04-08T08:53:59.571Z,28.10
2018-04-08T08:56:26.919Z,28.30
2018-04-08T08:58:54.441Z,28.60
2018-04-08T09:01:22.591Z,28.70
2018-04-08T09:03:49.975Z,29.10
2018-04-08T09:06:18.111Z,29.40
2018-04-08T09:11:13.776Z,29.90
2018-04-08T09:13:41.140Z,30.30
2018-04-08T09:18:36.877Z,30.90
2018-04-08T09:23:35.819Z,31.40
2018-04-08T09:28:32.288Z,32.10
2018-04-08T09:35:56.536Z,33.00
2018-04-08T09:38:28.974Z,33.20
2018-04-08T09:40:57.949Z,33.30
2018-04-08T09:43:26.092Z,33.70
2018-04-08T09:45:53.554Z,34.10
2018-04-08T09:48:20.969Z,34.40
2018-04-08T09:50:48.341Z,34.60
2018-04-08T09:53:15.720Z,34.90
2018-04-08T09:55:43.100Z,35.00
2018-04-08T09:58:11.553Z,35.00
2018-04-08T10:03:48.344Z,35.80
2018-04-08T10:06:15.774Z,36.10
2018-04-08T10:08:43.169Z,36.40
2018-04-08T10:11:10.657Z,36.70
2018-04-08T10:18:35.168Z,37.50
2018-04-08T10:21:02.748Z,37.50
2018-04-08T10:25:58.612Z,37.80
2018-04-08T10:30:54.467Z,38.30
2018-04-08T10:33:25.793Z,38.50
2018-04-08T10:35:54.379Z,38.80
2018-04-08T10:38:21.746Z,39.00
2018-04-08T10:40:50.070Z,39.20
2018-04-08T10:43:21.200Z,39.40
2018-04-08T10:45:49.480Z,39.80
2018-04-08T10:48:21.263Z,39.90
2018-04-08T10:50:50.508Z,40.10
2018-04-08T10:53:18.118Z,40.00
2018-04-08T10:55:48.358Z,40.30
2018-04-08T10:58:16.707Z,40.60
2018-04-08T11:00:46.068Z,40.70
2018-04-08T11:03:13.463Z,41.00
2018-04-08T11:05:41.744Z,41.10
2018-04-08T11:08:09.276Z,41.30
2018-04-08T11:13:05.081Z,41.30
2018-04-08T11:15:32.484Z,41.60
2018-04-08T11:18:00.632Z,41.60
2018-04-08T11:20:28.030Z,41.80
2018-04-08T11:25:24.616Z,41.80
2018-04-08T11:30:21.128Z,41.80
2018-04-08T11:35:16.958Z,41.20
2018-04-08T11:37:45.481Z,41.10
2018-04-08T11:40:12.960Z,41.20
2018-04-08T11:45:09.959Z,41.60
2018-04-08T11:47:37.616Z,41.70
2018-04-08T11:50:05.007Z,41.70
2018-04-08T11:52:32.447Z,41.80
2018-04-08T11:55:00.733Z,42.00
2018-04-08T11:57:28.928Z,42.00
2018-04-08T11:59:56.314Z,41.80
2018-04-08T12:02:24.570Z,41.40
2018-04-08T12:04:51.974Z,41.70
2018-04-08T12:07:20.709Z,41.80
2018-04-08T12:09:48.183Z,41.90
2018-04-08T12:12:15.569Z,41.80
2018-04-08T12:14:42.965Z,41.70
2018-04-08T12:17:10.391Z,41.40
2018-04-08T12:19:38.783Z,40.70
2018-04-08T12:22:07.184Z,38.90
2018-04-08T12:24:35.329Z,37.00
2018-04-08T12:27:06.460Z,36.20
2018-04-08T12:29:33.980Z,36.20
2018-04-08T12:32:01.326Z,36.00
2018-04-08T12:34:28.707Z,35.90
2018-04-08T12:36:56.585Z,36.20
2018-04-08T12:39:23.969Z,36.00
2018-04-08T12:41:51.341Z,35.40
2018-04-08T12:44:18.777Z,34.40
2018-04-08T12:46:46.232Z,34.10
2018-04-08T12:49:13.689Z,34.50
2018-04-08T12:51:41.469Z,35.20
2018-04-08T12:54:08.986Z,35.80
2018-04-08T12:56:36.372Z,36.50
2018-04-08T12:59:03.804Z,37.20
2018-04-08T13:01:31.924Z,37.10
2018-04-08T13:06:28.888Z,36.50
2018-04-08T13:08:56.347Z,36.40
2018-04-08T13:13:53.040Z,37.30
2018-04-08T13:16:21.800Z,38.00
2018-04-08T13:18:49.168Z,38.40
2018-04-08T13:21:16.637Z,38.60
2018-04-08T13:23:43.983Z,38.70
2018-04-08T13:26:11.486Z,39.00
2018-04-08T13:28:45.827Z,39.20
2018-04-08T13:31:13.200Z,38.90
2018-04-08T13:36:08.912Z,38.80
2018-04-08T13:41:04.678Z,38.80
2018-04-08T13:43:34.723Z,38.80
2018-04-08T13:46:02.039Z,38.90
2018-04-08T13:48:30.127Z,38.80
2018-04-08T13:55:54.887Z,38.60
2018-04-08T14:00:51.920Z,38.40
2018-04-08T14:05:47.646Z,38.10
2018-04-08T14:08:15.768Z,38.10
2018-04-08T14:10:43.647Z,37.80
2018-04-08T14:13:11.926Z,37.60
2018-04-08T14:18:08.280Z,37.10
2018-04-08T14:20:35.699Z,36.80
2018-04-08T14:23:03.803Z,36.80
2018-04-08T14:25:31.365Z,36.80
2018-04-08T14:30:26.960Z,36.70
2018-04-08T14:32:54.351Z,36.40
2018-04-08T14:37:50.035Z,36.20
2018-04-08T14:40:17.396Z,36.10
2018-04-08T14:42:45.527Z,35.90
2018-04-08T14:45:13.627Z,35.70
2018-04-08T14:47:41.012Z,35.60
2018-04-08T14:50:08.363Z,35.60
2018-04-08T14:52:35.704Z,35.30
2018-04-08T14:55:03.869Z,34.90
2018-04-08T14:57:31.971Z,34.50
2018-04-08T14:59:59.433Z,34.30
2018-04-08T15:02:26.803Z,33.80
2018-04-08T15:04:54.167Z,33.90
2018-04-08T15:07:22.296Z,34.10
2018-04-08T15:09:49.692Z,34.10
2018-04-08T15:12:17.165Z,34.00
2018-04-08T15:14:44.574Z,33.90
2018-04-08T15:17:11.916Z,33.80
2018-04-08T15:19:39.436Z,33.70
2018-04-08T15:22:06.876Z,33.50
2018-04-08T15:24:35.082Z,33.10
2018-04-08T15:27:02.463Z,33.00
2018-04-08T15:29:29.893Z,32.90
2018-04-08T15:31:57.411Z,32.90
2018-04-08T15:34:25.543Z,32.70
2018-04-08T15:39:21.163Z,32.50
2018-04-08T15:41:48.572Z,32.30
2018-04-08T15:44:19.057Z,32.00
2018-04-08T15:46:46.481Z,31.80
2018-04-08T15:49:13.840Z,31.70
2018-04-08T15:51:41.324Z,31.40
2018-04-08T15:54:08.703Z,31.30
2018-04-08T15:56:36.920Z,31.00
2018-04-08T16:04:02.045Z,30.80
2018-04-08T16:06:30.967Z,30.70
2018-04-08T16:11:26.637Z,30.60
2018-04-08T16:16:22.429Z,30.00
2018-04-08T16:18:51.308Z,29.80
2018-04-08T16:23:46.975Z,29.20
2018-04-08T16:28:42.669Z,29.10
2018-04-08T16:33:38.354Z,29.10
2018-04-08T16:36:05.770Z,29.00
2018-04-08T16:38:35.548Z,28.90
2018-04-08T16:41:05.556Z,28.70
2018-04-08T16:43:34.036Z,28.70
2018-04-08T16:48:32.173Z,28.50
2018-04-08T16:51:00.175Z,28.50
2018-04-08T16:53:28.361Z,28.40
2018-04-08T16:55:56.031Z,28.30
2018-04-08T16:58:24.216Z,28.20
2018-04-08T17:03:19.935Z,28.00
2018-04-08T17:05:48.098Z,27.90
2018-04-08T17:10:44.746Z,27.80
2018-04-08T17:13:12.112Z,27.70
2018-04-08T17:18:07.853Z,27.50
2018-04-08T17:23:04.285Z,27.30
2018-04-08T17:25:34.230Z,27.20
2018-04-08T17:28:02.822Z,27.10
2018-04-08T17:30:30.207Z,27.10
2018-04-08T17:32:57.626Z,27.00
2018-04-08T17:35:25.016Z,26.90
2018-04-08T17:37:52.521Z,26.80
2018-04-08T17:40:20.524Z,26.80
2018-04-08T17:42:48.680Z,26.70
2018-04-08T17:45:19.240Z,26.70
2018-04-08T17:47:48.065Z,26.60
2018-04-08T17:50:15.505Z,26.50
2018-04-08T18:00:07.963Z,26.30
2018-04-08T18:02:36.100Z,26.20
2018-04-08T18:05:04.652Z,26.20
2018-04-08T18:07:32.020Z,26.10
2018-04-08T18:09:59.377Z,26.00
2018-04-08T18:14:55.037Z,25.90
2018-04-08T18:17:23.124Z,25.70
2018-04-08T18:19:51.333Z,25.70
2018-04-08T18:24:46.980Z,25.50
2018-04-08T18:27:14.811Z,25.50
2018-04-08T18:29:43.081Z,25.40
2018-04-08T18:32:10.496Z,25.30
2018-04-08T18:37:06.179Z,25.20
2018-04-08T18:39:35.105Z,25.10
2018-04-08T18:44:30.826Z,25.00
2018-04-08T18:46:58.196Z,24.80
2018-04-08T18:49:26.320Z,24.70
2018-04-08T18:51:55.097Z,24.60
2018-04-08T18:54:23.217Z,24.50
2018-04-08T18:59:21.056Z,24.40
2018-04-08T19:01:48.435Z,24.40
2018-04-08T19:04:16.569Z,24.30
2018-04-08T19:06:43.908Z,24.20
2018-04-08T19:09:12.227Z,24.10
2018-04-08T19:11:39.600Z,24.10
2018-04-08T19:16:36.641Z,23.80
2018-04-08T19:19:05.860Z,23.80
2018-04-08T19:24:01.578Z,23.60
2018-04-08T19:26:28.957Z,23.60
2018-04-08T19:33:52.933Z,23.40
2018-04-08T19:36:20.472Z,23.40
2018-04-08T19:38:47.818Z,23.30
2018-04-08T19:41:15.980Z,23.30
2018-04-08T19:46:12.584Z,23.20
2018-04-08T19:48:40.847Z,23.10
2018-04-08T19:51:10.235Z,23.00
2018-04-08T19:56:11.335Z,22.90
2018-04-08T20:01:07.212Z,22.70
2018-04-08T20:06:04.300Z,22.60
2018-04-08T20:08:32.925Z,22.70
2018-04-08T20:11:01.522Z,22.70
2018-04-08T20:13:29.664Z,22.60
2018-04-08T20:15:57.074Z,22.60
2018-04-08T20:18:25.229Z,22.40
2018-04-08T20:23:20.998Z,22.40
2018-04-08T20:25:49.101Z,22.30
2018-04-08T20:30:45.529Z,22.40
2018-04-08T20:33:13.013Z,22.30
2018-04-08T20:38:08.901Z,22.30
2018-04-08T20:40:37.088Z,22.30
2018-04-08T20:43:04.497Z,22.30
2018-04-08T20:45:32.776Z,22.50
2018-04-08T20:48:00.868Z,22.50
2018-04-08T20:50:29.020Z,22.40
2018-04-08T20:52:57.204Z,22.50
2018-04-08T20:55:25.306Z,22.50
2018-04-08T20:57:52.708Z,22.50
2018-04-08T21:00:20.836Z,22.40
2018-04-08T21:02:48.240Z,22.50
2018-04-08T21:05:15.617Z,22.50
2018-04-08T21:07:43.066Z,22.50
2018-04-08T21:10:11.199Z,22.40
2018-04-08T21:12:38.592Z,22.40
2018-04-08T21:15:06.750Z,22.40
2018-04-08T21:17:34.180Z,22.30
2018-04-08T21:20:01.555Z,22.20
2018-04-08T21:22:28.943Z,22.10
2018-04-08T21:24:56.442Z,22.00
2018-04-08T21:27:24.833Z,21.90
2018-04-08T21:32:20.514Z,21.70
2018-04-08T21:34:47.885Z,21.70
2018-04-08T21:37:15.236Z,21.60
2018-04-08T21:39:42.618Z,21.60
2018-04-08T21:42:10.708Z,21.50
2018-04-08T21:44:38.155Z,21.40
2018-04-08T21:49:33.862Z,21.40
2018-04-08T21:52:01.993Z,21.30
2018-04-08T21:57:05.038Z,21.20
2018-04-08T21:59:39.261Z,21.20
2018-04-08T22:04:35.729Z,21.20
2018-04-08T22:07:03.940Z,21.10
2018-04-08T22:11:59.682Z,21.00
2018-04-08T22:14:27.080Z,21.00
2018-04-08T22:16:54.656Z,21.00
2018-04-08T22:21:52.265Z,20.90
2018-04-08T22:24:19.699Z,20.90
2018-04-08T22:26:47.054Z,20.90
2018-04-08T22:29:15.178Z,20.80
2018-04-08T22:31:43.286Z,20.80
2018-04-08T22:34:10.677Z,20.90
2018-04-08T22:36:38.752Z,20.80
2018-04-08T22:39:06.951Z,20.70
2018-04-08T22:41:35.233Z,20.70
2018-04-08T22:44:03.353Z,20.60
2018-04-08T22:46:30.774Z,20.60
2018-04-08T22:48:58.148Z,20.60
2018-04-08T22:53:54.629Z,20.50
2018-04-08T23:01:19.468Z,20.30
2018-04-08T23:03:46.812Z,20.20
2018-04-08T23:06:14.168Z,20.20
2018-04-08T23:08:42.264Z,20.20
2018-04-08T23:13:37.851Z,20.10
2018-04-08T23:16:05.988Z,20.00
2018-04-08T23:18:33.335Z,20.00
2018-04-08T23:21:01.438Z,20.00
2018-04-08T23:23:28.815Z,20.00
2018-04-08T23:25:56.907Z,20.00
2018-04-08T23:28:24.989Z,19.90
2018-04-08T23:30:53.286Z,19.80
2018-04-08T23:33:20.660Z,19.90
2018-04-08T23:45:41.928Z,19.90
2018-04-08T23:48:09.344Z,19.90
2018-04-08T23:50:36.664Z,19.90
2018-04-08T23:55:33.036Z,19.70
2018-04-08T23:58:01.202Z,19.60
